sensor_id;sensor_type;location;lat;lon;timestamp;P1;durP1;ratioP1;P2;durP2;ratioP2
45252;SDS011;30988;50.518;30.486;2022-07-03T00:00:14;5.65;;;3.45;;
45252;SDS011;30988;50.518;30.486;2022-07-03T00:00:46;7.18;;;3.05;;
45252;SDS011;30988;50.518;30.486;2022-07-03T00:01:18;5.05;;;3.58;;
45252;SDS011;30988;50.518;30.486;2022-07-03T00:01:49;3.63;;;2.92;;
45252;SDS011;30988;50.518;30.486;2022-07-03T00:02:20;6.70;;;2.83;;
45252;SDS011;30988;50.518;30.486;2022-07-03T00:02:53;4.47;;;3.13;;
45252;SDS011;30988;50.518;30.486;2022-07-03T00:03:24;6.35;;;2.78;;
45252;SDS011;30988;50.518;30.486;2022-07-03T00:03:55;2.42;;;2.22;;
45252;SDS011;30988;50.518;30.486;2022-07-03T00:04:28;3.25;;;2.80;;
45252;SDS011;30988;50.518;30.486;2022-07-03T00:05:00;3.88;;;3.03;;
45252;SDS011;30988;50.518;30.486;2022-07-03T00:05:32;2.83;;;2.47;;
45252;SDS011;30988;50.518;30.486;2022-07-03T00:06:04;6.93;;;2.72;;
45252;SDS011;30988;50.518;30.486;2022-07-03T00:06:35;2.85;;;2.58;;
45252;SDS011;30988;50.518;30.486;2022-07-03T00:07:07;6.60;;;3.38;;
45252;SDS011;30988;50.518;30.486;2022-07-03T00:07:39;5.82;;;2.75;;
45252;SDS011;30988;50.518;30.486;2022-07-03T00:08:10;3.75;;;2.67;;
45252;SDS011;30988;50.518;30.486;2022-07-03T00:08:42;3.90;;;2.35;;
45252;SDS011;30988;50.518;30.486;2022-07-03T00:09:14;3.28;;;2.63;;
45252;SDS011;30988;50.518;30.486;2022-07-03T00:09:45;3.38;;;3.08;;
45252;SDS011;30988;50.518;30.486;2022-07-03T00:10:17;3.33;;;2.53;;
45252;SDS011;30988;50.518;30.486;2022-07-03T00:10:49;3.17;;;2.88;;
45252;SDS011;30988;50.518;30.486;2022-07-03T00:11:20;4.88;;;2.75;;
45252;SDS011;30988;50.518;30.486;2022-07-03T00:11:51;14.18;;;5.32;;
45252;SDS011;30988;50.518;30.486;2022-07-03T00:12:24;5.35;;;4.10;;
45252;SDS011;30988;50.518;30.486;2022-07-03T00:12:55;8.70;;;4.55;;
45252;SDS011;30988;50.518;30.486;2022-07-03T00:13:26;7.00;;;3.70;;
45252;SDS011;30988;50.518;30.486;2022-07-03T00:13:58;4.00;;;3.63;;
45252;SDS011;30988;50.518;30.486;2022-07-03T00:14:30;6.45;;;3.85;;
45252;SDS011;30988;50.518;30.486;2022-07-03T00:15:03;7.70;;;4.68;;
45252;SDS011;30988;50.518;30.486;2022-07-03T00:15:35;6.30;;;3.92;;
45252;SDS011;30988;50.518;30.486;2022-07-03T00:16:09;6.72;;;4.47;;
45252;SDS011;30988;50.518;30.486;2022-07-03T00:16:40;5.65;;;4.30;;
45252;SDS011;30988;50.518;30.486;2022-07-03T00:17:11;5.57;;;3.60;;
45252;SDS011;30988;50.518;30.486;2022-07-03T00:17:43;6.60;;;5.38;;
45252;SDS011;30988;50.518;30.486;2022-07-03T00:18:15;10.80;;;5.85;;
45252;SDS011;30988;50.518;30.486;2022-07-03T00:18:46;7.95;;;5.38;;
45252;SDS011;30988;50.518;30.486;2022-07-03T00:19:17;7.40;;;5.05;;
45252;SDS011;30988;50.518;30.486;2022-07-03T00:19:50;10.13;;;5.03;;
45252;SDS011;30988;50.518;30.486;2022-07-03T00:20:22;7.82;;;4.38;;
45252;SDS011;30988;50.518;30.486;2022-07-03T00:20:59;5.18;;;4.35;;
45252;SDS011;30988;50.518;30.486;2022-07-03T00:21:34;8.80;;;4.93;;
45252;SDS011;30988;50.518;30.486;2022-07-03T00:22:12;6.40;;;4.70;;
45252;SDS011;30988;50.518;30.486;2022-07-03T00:22:45;9.15;;;4.65;;
45252;SDS011;30988;50.518;30.486;2022-07-03T00:23:17;7.60;;;5.00;;
45252;SDS011;30988;50.518;30.486;2022-07-03T00:23:51;7.00;;;5.32;;
45252;SDS011;30988;50.518;30.486;2022-07-03T00:24:37;5.40;;;4.90;;
45252;SDS011;30988;50.518;30.486;2022-07-03T00:25:13;5.35;;;4.63;;
45252;SDS011;30988;50.518;30.486;2022-07-03T00:25:45;5.97;;;3.17;;
45252;SDS011;30988;50.518;30.486;2022-07-03T00:26:20;8.60;;;4.20;;
45252;SDS011;30988;50.518;30.486;2022-07-03T00:26:52;7.57;;;5.30;;
45252;SDS011;30988;50.518;30.486;2022-07-03T00:27:25;7.18;;;4.72;;
45252;SDS011;30988;50.518;30.486;2022-07-03T00:27:56;9.48;;;4.00;;
45252;SDS011;30988;50.518;30.486;2022-07-03T00:28:28;8.55;;;4.72;;
45252;SDS011;30988;50.518;30.486;2022-07-03T00:29:00;11.05;;;4.68;;
45252;SDS011;30988;50.518;30.486;2022-07-03T00:29:36;5.22;;;3.35;;
45252;SDS011;30988;50.518;30.486;2022-07-03T00:30:09;5.05;;;4.07;;
45252;SDS011;30988;50.518;30.486;2022-07-03T00:30:41;6.97;;;4.63;;
45252;SDS011;30988;50.518;30.486;2022-07-03T00:31:17;7.88;;;4.03;;
45252;SDS011;30988;50.518;30.486;2022-07-03T00:31:49;7.78;;;4.28;;
45252;SDS011;30988;50.518;30.486;2022-07-03T00:32:21;4.43;;;3.45;;
45252;SDS011;30988;50.518;30.486;2022-07-03T00:32:54;10.27;;;3.63;;
45252;SDS011;30988;50.518;30.486;2022-07-03T00:33:26;4.05;;;2.40;;
45252;SDS011;30988;50.518;30.486;2022-07-03T00:33:59;4.63;;;3.35;;
45252;SDS011;30988;50.518;30.486;2022-07-03T00:34:32;5.80;;;3.25;;
45252;SDS011;30988;50.518;30.486;2022-07-03T00:35:04;5.32;;;3.28;;
45252;SDS011;30988;50.518;30.486;2022-07-03T00:35:38;9.88;;;3.38;;
45252;SDS011;30988;50.518;30.486;2022-07-03T00:36:10;7.95;;;3.33;;
45252;SDS011;30988;50.518;30.486;2022-07-03T00:36:43;6.05;;;3.30;;
45252;SDS011;30988;50.518;30.486;2022-07-03T00:37:18;6.78;;;3.78;;
45252;SDS011;30988;50.518;30.486;2022-07-03T00:37:49;4.03;;;2.70;;
45252;SDS011;30988;50.518;30.486;2022-07-03T00:38:21;6.03;;;2.70;;
45252;SDS011;30988;50.518;30.486;2022-07-03T00:38:53;7.28;;;3.42;;
45252;SDS011;30988;50.518;30.486;2022-07-03T00:39:25;5.95;;;2.95;;
45252;SDS011;30988;50.518;30.486;2022-07-03T00:39:56;5.95;;;2.60;;
45252;SDS011;30988;50.518;30.486;2022-07-03T00:40:29;8.65;;;2.53;;
45252;SDS011;30988;50.518;30.486;2022-07-03T00:41:01;6.07;;;2.72;;
45252;SDS011;30988;50.518;30.486;2022-07-03T00:41:34;5.82;;;2.72;;
45252;SDS011;30988;50.518;30.486;2022-07-03T00:42:08;4.88;;;3.13;;
45252;SDS011;30988;50.518;30.486;2022-07-03T00:42:40;12.05;;;3.50;;
45252;SDS011;30988;50.518;30.486;2022-07-03T00:43:12;4.20;;;2.75;;
45252;SDS011;30988;50.518;30.486;2022-07-03T00:43:48;6.18;;;2.53;;
45252;SDS011;30988;50.518;30.486;2022-07-03T00:44:19;7.28;;;2.85;;
45252;SDS011;30988;50.518;30.486;2022-07-03T00:44:52;4.32;;;2.30;;
45252;SDS011;30988;50.518;30.486;2022-07-03T00:45:25;4.28;;;2.80;;
45252;SDS011;30988;50.518;30.486;2022-07-03T00:46:03;4.13;;;2.90;;
45252;SDS011;30988;50.518;30.486;2022-07-03T00:46:38;7.95;;;2.55;;
45252;SDS011;30988;50.518;30.486;2022-07-03T00:47:11;4.25;;;2.72;;
45252;SDS011;30988;50.518;30.486;2022-07-03T00:47:44;5.65;;;2.75;;
45252;SDS011;30988;50.518;30.486;2022-07-03T00:48:16;3.95;;;2.75;;
45252;SDS011;30988;50.518;30.486;2022-07-03T00:48:50;5.55;;;3.40;;
45252;SDS011;30988;50.518;30.486;2022-07-03T00:49:22;2.63;;;2.42;;
45252;SDS011;30988;50.518;30.486;2022-07-03T00:49:55;4.25;;;2.63;;
45252;SDS011;30988;50.518;30.486;2022-07-03T00:50:35;6.43;;;3.20;;
45252;SDS011;30988;50.518;30.486;2022-07-03T00:51:09;4.50;;;2.70;;
45252;SDS011;30988;50.518;30.486;2022-07-03T00:51:45;6.85;;;2.92;;
45252;SDS011;30988;50.518;30.486;2022-07-03T00:52:22;5.07;;;2.50;;
45252;SDS011;30988;50.518;30.486;2022-07-03T00:52:54;5.47;;;2.03;;
45252;SDS011;30988;50.518;30.486;2022-07-03T00:53:29;5.53;;;2.92;;
45252;SDS011;30988;50.518;30.486;2022-07-03T00:54:03;6.75;;;2.95;;
45252;SDS011;30988;50.518;30.486;2022-07-03T00:54:35;5.15;;;3.38;;
45252;SDS011;30988;50.518;30.486;2022-07-03T00:55:14;6.20;;;2.22;;
45252;SDS011;30988;50.518;30.486;2022-07-03T00:55:47;4.40;;;3.13;;
45252;SDS011;30988;50.518;30.486;2022-07-03T00:56:22;6.65;;;2.72;;
45252;SDS011;30988;50.518;30.486;2022-07-03T00:56:56;4.50;;;2.42;;
45252;SDS011;30988;50.518;30.486;2022-07-03T00:57:30;8.40;;;3.35;;
45252;SDS011;30988;50.518;30.486;2022-07-03T00:58:02;3.28;;;2.88;;
45252;SDS011;30988;50.518;30.486;2022-07-03T00:58:34;7.35;;;2.80;;
45252;SDS011;30988;50.518;30.486;2022-07-03T00:59:06;4.57;;;2.47;;
45252;SDS011;30988;50.518;30.486;2022-07-03T00:59:38;3.58;;;2.55;;
45252;SDS011;30988;50.518;30.486;2022-07-03T01:00:10;5.43;;;3.00;;
45252;SDS011;30988;50.518;30.486;2022-07-03T01:00:43;2.25;;;2.00;;
45252;SDS011;30988;50.518;30.486;2022-07-03T01:01:17;3.25;;;2.67;;
45252;SDS011;30988;50.518;30.486;2022-07-03T01:01:51;4.10;;;2.97;;
45252;SDS011;30988;50.518;30.486;2022-07-03T01:02:31;6.60;;;2.65;;
45252;SDS011;30988;50.518;30.486;2022-07-03T01:03:10;5.15;;;2.65;;
45252;SDS011;30988;50.518;30.486;2022-07-03T01:03:45;3.85;;;2.50;;
45252;SDS011;30988;50.518;30.486;2022-07-03T01:04:21;3.95;;;1.77;;
45252;SDS011;30988;50.518;30.486;2022-07-03T01:05:11;6.90;;;2.63;;
45252;SDS011;30988;50.518;30.486;2022-07-03T01:05:49;4.40;;;2.53;;
45252;SDS011;30988;50.518;30.486;2022-07-03T01:06:24;4.30;;;2.15;;
45252;SDS011;30988;50.518;30.486;2022-07-03T01:07:02;8.15;;;2.72;;
45252;SDS011;30988;50.518;30.486;2022-07-03T01:07:43;5.03;;;2.70;;
45252;SDS011;30988;50.518;30.486;2022-07-03T01:08:20;2.88;;;2.55;;
45252;SDS011;30988;50.518;30.486;2022-07-03T01:08:57;3.05;;;1.88;;
45252;SDS011;30988;50.518;30.486;2022-07-03T01:09:35;3.42;;;2.40;;
45252;SDS011;30988;50.518;30.486;2022-07-03T01:10:16;4.00;;;2.55;;
45252;SDS011;30988;50.518;30.486;2022-07-03T01:11:00;5.53;;;2.00;;
45252;SDS011;30988;50.518;30.486;2022-07-03T01:11:38;3.33;;;2.38;;
45252;SDS011;30988;50.518;30.486;2022-07-03T01:12:21;4.30;;;2.22;;
45252;SDS011;30988;50.518;30.486;2022-07-03T01:13:00;4.28;;;2.38;;
45252;SDS011;30988;50.518;30.486;2022-07-03T01:13:38;4.43;;;2.20;;
45252;SDS011;30988;50.518;30.486;2022-07-03T01:14:19;3.47;;;1.95;;
45252;SDS011;30988;50.518;30.486;2022-07-03T01:15:37;5.13;;;2.53;;
45252;SDS011;30988;50.518;30.486;2022-07-03T01:16:17;3.67;;;2.47;;
45252;SDS011;30988;50.518;30.486;2022-07-03T01:16:55;2.63;;;2.22;;
45252;SDS011;30988;50.518;30.486;2022-07-03T01:17:31;4.35;;;2.00;;
45252;SDS011;30988;50.518;30.486;2022-07-03T01:18:13;4.88;;;2.58;;
45252;SDS011;30988;50.518;30.486;2022-07-03T01:18:53;5.18;;;2.17;;
45252;SDS011;30988;50.518;30.486;2022-07-03T01:19:37;3.50;;;2.20;;
45252;SDS011;30988;50.518;30.486;2022-07-03T01:20:12;6.53;;;2.90;;
45252;SDS011;30988;50.518;30.486;2022-07-03T01:20:46;4.03;;;2.72;;
45252;SDS011;30988;50.518;30.486;2022-07-03T01:21:27;3.83;;;1.77;;
45252;SDS011;30988;50.518;30.486;2022-07-03T01:22:12;3.15;;;2.15;;
45252;SDS011;30988;50.518;30.486;2022-07-03T01:23:07;2.72;;;2.35;;
45252;SDS011;30988;50.518;30.486;2022-07-03T01:24:07;3.42;;;2.30;;
45252;SDS011;30988;50.518;30.486;2022-07-03T01:25:13;3.30;;;1.90;;
45252;SDS011;30988;50.518;30.486;2022-07-03T01:25:48;2.97;;;2.13;;
45252;SDS011;30988;50.518;30.486;2022-07-03T01:26:20;4.10;;;2.00;;
45252;SDS011;30988;50.518;30.486;2022-07-03T01:26:57;8.43;;;2.63;;
45252;SDS011;30988;50.518;30.486;2022-07-03T01:27:35;2.95;;;2.05;;
45252;SDS011;30988;50.518;30.486;2022-07-03T01:28:19;7.15;;;2.22;;
45252;SDS011;30988;50.518;30.486;2022-07-03T01:28:54;6.15;;;1.88;;
45252;SDS011;30988;50.518;30.486;2022-07-03T01:29:31;3.95;;;2.25;;
45252;SDS011;30988;50.518;30.486;2022-07-03T01:30:22;4.78;;;2.25;;
45252;SDS011;30988;50.518;30.486;2022-07-03T01:30:55;4.85;;;2.10;;
45252;SDS011;30988;50.518;30.486;2022-07-03T01:31:31;2.65;;;1.65;;
45252;SDS011;30988;50.518;30.486;2022-07-03T01:32:05;4.60;;;1.75;;
45252;SDS011;30988;50.518;30.486;2022-07-03T01:32:39;2.85;;;1.80;;
45252;SDS011;30988;50.518;30.486;2022-07-03T01:33:15;3.85;;;1.90;;
45252;SDS011;30988;50.518;30.486;2022-07-03T01:33:50;2.22;;;2.00;;
45252;SDS011;30988;50.518;30.486;2022-07-03T01:34:22;9.75;;;2.17;;
45252;SDS011;30988;50.518;30.486;2022-07-03T01:35:00;4.07;;;2.30;;
45252;SDS011;30988;50.518;30.486;2022-07-03T01:35:35;5.45;;;2.40;;
45252;SDS011;30988;50.518;30.486;2022-07-03T01:36:08;6.55;;;2.30;;
45252;SDS011;30988;50.518;30.486;2022-07-03T01:36:43;2.22;;;1.65;;
45252;SDS011;30988;50.518;30.486;2022-07-03T01:37:19;3.05;;;1.90;;
45252;SDS011;30988;50.518;30.486;2022-07-03T01:37:52;3.45;;;2.22;;
45252;SDS011;30988;50.518;30.486;2022-07-03T01:38:27;2.55;;;1.92;;
45252;SDS011;30988;50.518;30.486;2022-07-03T01:39:00;8.85;;;1.77;;
45252;SDS011;30988;50.518;30.486;2022-07-03T01:39:32;4.53;;;1.80;;
45252;SDS011;30988;50.518;30.486;2022-07-03T01:40:07;3.22;;;2.30;;
45252;SDS011;30988;50.518;30.486;2022-07-03T01:40:40;4.05;;;2.30;;
45252;SDS011;30988;50.518;30.486;2022-07-03T01:41:13;6.50;;;2.17;;
45252;SDS011;30988;50.518;30.486;2022-07-03T01:41:46;5.65;;;2.60;;
45252;SDS011;30988;50.518;30.486;2022-07-03T01:42:19;4.53;;;2.00;;
45252;SDS011;30988;50.518;30.486;2022-07-03T01:42:53;3.13;;;1.90;;
45252;SDS011;30988;50.518;30.486;2022-07-03T01:43:28;4.70;;;2.17;;
45252;SDS011;30988;50.518;30.486;2022-07-03T01:44:01;2.15;;;1.73;;
45252;SDS011;30988;50.518;30.486;2022-07-03T01:44:32;2.95;;;2.13;;
45252;SDS011;30988;50.518;30.486;2022-07-03T01:45:07;11.07;;;2.42;;
45252;SDS011;30988;50.518;30.486;2022-07-03T01:45:41;3.00;;;2.17;;
45252;SDS011;30988;50.518;30.486;2022-07-03T01:46:15;5.32;;;2.13;;
45252;SDS011;30988;50.518;30.486;2022-07-03T01:46:49;4.18;;;2.13;;
45252;SDS011;30988;50.518;30.486;2022-07-03T01:47:23;4.30;;;2.00;;
45252;SDS011;30988;50.518;30.486;2022-07-03T01:47:55;4.28;;;2.13;;
45252;SDS011;30988;50.518;30.486;2022-07-03T01:48:30;4.95;;;2.13;;
45252;SDS011;30988;50.518;30.486;2022-07-03T01:49:03;3.25;;;2.10;;
45252;SDS011;30988;50.518;30.486;2022-07-03T01:49:37;3.42;;;1.98;;
45252;SDS011;30988;50.518;30.486;2022-07-03T01:50:13;2.10;;;1.33;;
45252;SDS011;30988;50.518;30.486;2022-07-03T01:50:45;2.70;;;2.47;;
45252;SDS011;30988;50.518;30.486;2022-07-03T01:51:17;3.97;;;1.85;;
45252;SDS011;30988;50.518;30.486;2022-07-03T01:51:50;3.25;;;1.60;;
45252;SDS011;30988;50.518;30.486;2022-07-03T01:52:23;3.30;;;1.40;;
45252;SDS011;30988;50.518;30.486;2022-07-03T01:52:56;3.47;;;2.22;;
45252;SDS011;30988;50.518;30.486;2022-07-03T01:53:30;1.88;;;1.75;;
45252;SDS011;30988;50.518;30.486;2022-07-03T01:54:02;2.83;;;1.98;;
45252;SDS011;30988;50.518;30.486;2022-07-03T01:54:34;3.13;;;1.77;;
45252;SDS011;30988;50.518;30.486;2022-07-03T01:55:08;7.20;;;2.17;;
45252;SDS011;30988;50.518;30.486;2022-07-03T01:55:40;5.88;;;1.85;;
45252;SDS011;30988;50.518;30.486;2022-07-03T01:56:15;3.17;;;2.10;;
45252;SDS011;30988;50.518;30.486;2022-07-03T01:56:48;1.65;;;1.55;;
45252;SDS011;30988;50.518;30.486;2022-07-03T01:57:20;2.78;;;2.00;;
45252;SDS011;30988;50.518;30.486;2022-07-03T01:57:55;2.40;;;1.80;;
45252;SDS011;30988;50.518;30.486;2022-07-03T01:58:27;6.40;;;1.95;;
45252;SDS011;30988;50.518;30.486;2022-07-03T01:58:58;2.72;;;1.98;;
45252;SDS011;30988;50.518;30.486;2022-07-03T01:59:31;2.25;;;1.92;;
45252;SDS011;30988;50.518;30.486;2022-07-03T02:00:02;7.22;;;2.40;;
45252;SDS011;30988;50.518;30.486;2022-07-03T02:00:45;3.20;;;1.35;;
45252;SDS011;30988;50.518;30.486;2022-07-03T02:01:22;6.88;;;2.10;;
45252;SDS011;30988;50.518;30.486;2022-07-03T02:02:04;6.18;;;2.17;;
45252;SDS011;30988;50.518;30.486;2022-07-03T02:02:45;1.85;;;1.67;;
45252;SDS011;30988;50.518;30.486;2022-07-03T02:03:26;4.47;;;1.58;;
45252;SDS011;30988;50.518;30.486;2022-07-03T02:04:02;6.35;;;2.55;;
45252;SDS011;30988;50.518;30.486;2022-07-03T02:04:39;4.68;;;2.70;;
45252;SDS011;30988;50.518;30.486;2022-07-03T02:05:27;5.30;;;1.90;;
45252;SDS011;30988;50.518;30.486;2022-07-03T02:06:05;5.28;;;2.35;;
45252;SDS011;30988;50.518;30.486;2022-07-03T02:06:39;6.00;;;1.70;;
45252;SDS011;30988;50.518;30.486;2022-07-03T02:07:16;3.30;;;1.70;;
45252;SDS011;30988;50.518;30.486;2022-07-03T02:07:53;2.05;;;1.63;;
45252;SDS011;30988;50.518;30.486;2022-07-03T02:09:09;6.30;;;2.22;;
45252;SDS011;30988;50.518;30.486;2022-07-03T02:09:44;3.35;;;1.92;;
45252;SDS011;30988;50.518;30.486;2022-07-03T02:10:21;4.13;;;1.80;;
45252;SDS011;30988;50.518;30.486;2022-07-03T02:11:05;2.78;;;1.60;;
45252;SDS011;30988;50.518;30.486;2022-07-03T02:11:43;2.17;;;1.40;;
45252;SDS011;30988;50.518;30.486;2022-07-03T02:12:18;1.80;;;1.67;;
45252;SDS011;30988;50.518;30.486;2022-07-03T02:12:51;7.00;;;1.90;;
45252;SDS011;30988;50.518;30.486;2022-07-03T02:13:28;4.25;;;1.58;;
45252;SDS011;30988;50.518;30.486;2022-07-03T02:14:03;3.30;;;1.92;;
45252;SDS011;30988;50.518;30.486;2022-07-03T02:14:43;9.40;;;2.17;;
45252;SDS011;30988;50.518;30.486;2022-07-03T02:15:25;4.82;;;1.90;;
45252;SDS011;30988;50.518;30.486;2022-07-03T02:16:00;2.58;;;2.13;;
45252;SDS011;30988;50.518;30.486;2022-07-03T02:16:34;3.58;;;1.73;;
45252;SDS011;30988;50.518;30.486;2022-07-03T02:17:16;5.57;;;2.33;;
45252;SDS011;30988;50.518;30.486;2022-07-03T02:17:48;4.13;;;2.38;;
45252;SDS011;30988;50.518;30.486;2022-07-03T02:18:26;4.35;;;1.90;;
45252;SDS011;30988;50.518;30.486;2022-07-03T02:19:03;5.28;;;2.28;;
45252;SDS011;30988;50.518;30.486;2022-07-03T02:19:37;4.53;;;1.70;;
45252;SDS011;30988;50.518;30.486;2022-07-03T02:20:15;4.57;;;2.30;;
45252;SDS011;30988;50.518;30.486;2022-07-03T02:20:50;2.60;;;2.15;;
45252;SDS011;30988;50.518;30.486;2022-07-03T02:21:32;6.57;;;2.33;;
45252;SDS011;30988;50.518;30.486;2022-07-03T02:22:07;4.03;;;2.25;;
45252;SDS011;30988;50.518;30.486;2022-07-03T02:22:40;6.18;;;1.80;;
45252;SDS011;30988;50.518;30.486;2022-07-03T02:23:12;6.93;;;2.03;;
45252;SDS011;30988;50.518;30.486;2022-07-03T02:23:49;5.25;;;2.03;;
45252;SDS011;30988;50.518;30.486;2022-07-03T02:24:31;7.30;;;2.40;;
45252;SDS011;30988;50.518;30.486;2022-07-03T02:25:18;5.05;;;1.92;;
45252;SDS011;30988;50.518;30.486;2022-07-03T02:25:52;4.15;;;2.00;;
45252;SDS011;30988;50.518;30.486;2022-07-03T02:26:29;3.65;;;1.70;;
45252;SDS011;30988;50.518;30.486;2022-07-03T02:27:06;7.65;;;2.63;;
45252;SDS011;30988;50.518;30.486;2022-07-03T02:27:44;6.47;;;2.45;;
45252;SDS011;30988;50.518;30.486;2022-07-03T02:28:22;3.08;;;2.65;;
45252;SDS011;30988;50.518;30.486;2022-07-03T02:29:02;3.08;;;1.85;;
45252;SDS011;30988;50.518;30.486;2022-07-03T02:29:36;6.95;;;2.28;;
45252;SDS011;30988;50.518;30.486;2022-07-03T02:30:12;2.42;;;1.70;;
45252;SDS011;30988;50.518;30.486;2022-07-03T02:30:45;3.05;;;1.92;;
45252;SDS011;30988;50.518;30.486;2022-07-03T02:31:20;5.85;;;1.92;;
45252;SDS011;30988;50.518;30.486;2022-07-03T02:31:57;9.27;;;2.70;;
45252;SDS011;30988;50.518;30.486;2022-07-03T02:32:32;6.80;;;2.20;;
45252;SDS011;30988;50.518;30.486;2022-07-03T02:33:06;5.13;;;1.83;;
45252;SDS011;30988;50.518;30.486;2022-07-03T02:33:41;3.63;;;2.30;;
45252;SDS011;30988;50.518;30.486;2022-07-03T02:34:16;4.18;;;2.22;;
45252;SDS011;30988;50.518;30.486;2022-07-03T02:34:49;3.88;;;2.08;;
45252;SDS011;30988;50.518;30.486;2022-07-03T02:35:29;3.78;;;2.67;;
45252;SDS011;30988;50.518;30.486;2022-07-03T02:36:00;5.25;;;2.10;;
45252;SDS011;30988;50.518;30.486;2022-07-03T02:36:33;4.72;;;2.42;;
45252;SDS011;30988;50.518;30.486;2022-07-03T02:37:10;5.38;;;2.00;;
45252;SDS011;30988;50.518;30.486;2022-07-03T02:37:47;4.65;;;2.55;;
45252;SDS011;30988;50.518;30.486;2022-07-03T02:38:25;8.68;;;2.30;;
45252;SDS011;30988;50.518;30.486;2022-07-03T02:38:57;8.95;;;2.53;;
45252;SDS011;30988;50.518;30.486;2022-07-03T02:39:32;4.45;;;2.13;;
45252;SDS011;30988;50.518;30.486;2022-07-03T02:40:59;5.30;;;2.50;;
45252;SDS011;30988;50.518;30.486;2022-07-03T02:41:39;5.03;;;2.58;;
45252;SDS011;30988;50.518;30.486;2022-07-03T02:42:22;4.53;;;1.70;;
45252;SDS011;30988;50.518;30.486;2022-07-03T02:43:02;4.60;;;2.08;;
45252;SDS011;30988;50.518;30.486;2022-07-03T02:43:47;4.90;;;2.10;;
45252;SDS011;30988;50.518;30.486;2022-07-03T02:44:27;3.53;;;1.92;;
45252;SDS011;30988;50.518;30.486;2022-07-03T02:45:03;3.05;;;1.70;;
45252;SDS011;30988;50.518;30.486;2022-07-03T02:45:38;5.78;;;2.22;;
45252;SDS011;30988;50.518;30.486;2022-07-03T02:46:15;6.50;;;2.47;;
45252;SDS011;30988;50.518;30.486;2022-07-03T02:47:21;3.08;;;1.50;;
45252;SDS011;30988;50.518;30.486;2022-07-03T02:48:02;5.05;;;1.67;;
45252;SDS011;30988;50.518;30.486;2022-07-03T02:48:40;5.63;;;2.50;;
45252;SDS011;30988;50.518;30.486;2022-07-03T02:49:20;5.35;;;2.65;;
45252;SDS011;30988;50.518;30.486;2022-07-03T02:50:02;5.57;;;2.28;;
45252;SDS011;30988;50.518;30.486;2022-07-03T02:50:35;8.75;;;2.03;;
45252;SDS011;30988;50.518;30.486;2022-07-03T02:51:10;5.50;;;1.90;;
45252;SDS011;30988;50.518;30.486;2022-07-03T02:51:50;2.83;;;2.13;;
45252;SDS011;30988;50.518;30.486;2022-07-03T02:52:34;4.80;;;2.17;;
45252;SDS011;30988;50.518;30.486;2022-07-03T02:53:19;7.20;;;2.75;;
45252;SDS011;30988;50.518;30.486;2022-07-03T02:53:59;7.88;;;2.00;;
45252;SDS011;30988;50.518;30.486;2022-07-03T02:54:34;3.47;;;2.10;;
45252;SDS011;30988;50.518;30.486;2022-07-03T02:55:20;6.32;;;1.63;;
45252;SDS011;30988;50.518;30.486;2022-07-03T02:56:06;5.38;;;2.30;;
45252;SDS011;30988;50.518;30.486;2022-07-03T02:56:52;5.20;;;1.90;;
45252;SDS011;30988;50.518;30.486;2022-07-03T02:57:35;3.85;;;2.20;;
45252;SDS011;30988;50.518;30.486;2022-07-03T02:59:19;3.55;;;2.22;;
45252;SDS011;30988;50.518;30.486;2022-07-03T03:00:00;5.45;;;1.70;;
45252;SDS011;30988;50.518;30.486;2022-07-03T03:00:35;9.45;;;2.47;;
45252;SDS011;30988;50.518;30.486;2022-07-03T03:01:13;3.83;;;2.60;;
45252;SDS011;30988;50.518;30.486;2022-07-03T03:01:53;7.53;;;2.45;;
45252;SDS011;30988;50.518;30.486;2022-07-03T03:02:36;5.75;;;2.42;;
45252;SDS011;30988;50.518;30.486;2022-07-03T03:03:17;5.90;;;2.70;;
45252;SDS011;30988;50.518;30.486;2022-07-03T03:03:58;6.15;;;2.25;;
45252;SDS011;30988;50.518;30.486;2022-07-03T03:04:40;6.40;;;2.10;;
45252;SDS011;30988;50.518;30.486;2022-07-03T03:05:16;4.88;;;1.95;;
45252;SDS011;30988;50.518;30.486;2022-07-03T03:05:59;5.90;;;2.63;;
45252;SDS011;30988;50.518;30.486;2022-07-03T03:06:35;4.80;;;2.00;;
45252;SDS011;30988;50.518;30.486;2022-07-03T03:07:08;5.28;;;1.75;;
45252;SDS011;30988;50.518;30.486;2022-07-03T03:07:45;6.38;;;1.98;;
45252;SDS011;30988;50.518;30.486;2022-07-03T03:08:29;3.22;;;1.92;;
45252;SDS011;30988;50.518;30.486;2022-07-03T03:09:06;6.40;;;2.28;;
45252;SDS011;30988;50.518;30.486;2022-07-03T03:09:45;10.77;;;2.30;;
45252;SDS011;30988;50.518;30.486;2022-07-03T03:10:18;3.53;;;2.03;;
45252;SDS011;30988;50.518;30.486;2022-07-03T03:10:50;2.63;;;1.50;;
45252;SDS011;30988;50.518;30.486;2022-07-03T03:11:29;2.08;;;1.85;;
45252;SDS011;30988;50.518;30.486;2022-07-03T03:12:04;4.57;;;1.77;;
45252;SDS011;30988;50.518;30.486;2022-07-03T03:12:38;4.72;;;2.08;;
45252;SDS011;30988;50.518;30.486;2022-07-03T03:13:13;8.32;;;2.35;;
45252;SDS011;30988;50.518;30.486;2022-07-03T03:13:49;5.78;;;2.58;;
45252;SDS011;30988;50.518;30.486;2022-07-03T03:14:21;5.03;;;2.28;;
45252;SDS011;30988;50.518;30.486;2022-07-03T03:15:00;3.20;;;2.28;;
45252;SDS011;30988;50.518;30.486;2022-07-03T03:15:32;5.32;;;2.58;;
45252;SDS011;30988;50.518;30.486;2022-07-03T03:16:06;4.38;;;2.10;;
45252;SDS011;30988;50.518;30.486;2022-07-03T03:16:44;5.47;;;2.03;;
45252;SDS011;30988;50.518;30.486;2022-07-03T03:17:18;8.40;;;2.75;;
45252;SDS011;30988;50.518;30.486;2022-07-03T03:18:00;4.40;;;1.60;;
45252;SDS011;30988;50.518;30.486;2022-07-03T03:18:34;5.28;;;1.95;;
45252;SDS011;30988;50.518;30.486;2022-07-03T03:19:06;4.22;;;2.05;;
45252;SDS011;30988;50.518;30.486;2022-07-03T03:19:39;3.75;;;1.90;;
45252;SDS011;30988;50.518;30.486;2022-07-03T03:20:14;5.15;;;1.80;;
45252;SDS011;30988;50.518;30.486;2022-07-03T03:20:46;6.63;;;2.13;;
45252;SDS011;30988;50.518;30.486;2022-07-03T03:21:21;5.55;;;1.85;;
45252;SDS011;30988;50.518;30.486;2022-07-03T03:22:03;6.65;;;2.15;;
45252;SDS011;30988;50.518;30.486;2022-07-03T03:22:47;6.05;;;1.92;;
45252;SDS011;30988;50.518;30.486;2022-07-03T03:23:33;5.40;;;2.22;;
45252;SDS011;30988;50.518;30.486;2022-07-03T03:24:14;15.88;;;10.60;;
45252;SDS011;30988;50.518;30.486;2022-07-03T03:24:45;17.67;;;7.57;;
45252;SDS011;30988;50.518;30.486;2022-07-03T03:25:16;9.40;;;6.35;;
45252;SDS011;30988;50.518;30.486;2022-07-03T03:25:50;15.45;;;9.38;;
45252;SDS011;30988;50.518;30.486;2022-07-03T03:26:23;6.90;;;3.83;;
45252;SDS011;30988;50.518;30.486;2022-07-03T03:26:56;10.30;;;6.60;;
45252;SDS011;30988;50.518;30.486;2022-07-03T03:27:28;8.85;;;5.15;;
45252;SDS011;30988;50.518;30.486;2022-07-03T03:28:01;16.65;;;14.15;;
45252;SDS011;30988;50.518;30.486;2022-07-03T03:28:33;7.43;;;4.35;;
45252;SDS011;30988;50.518;30.486;2022-07-03T03:29:05;4.53;;;3.97;;
45252;SDS011;30988;50.518;30.486;2022-07-03T03:29:37;8.27;;;4.07;;
45252;SDS011;30988;50.518;30.486;2022-07-03T03:30:09;7.95;;;5.35;;
45252;SDS011;30988;50.518;30.486;2022-07-03T03:30:41;6.63;;;4.07;;
45252;SDS011;30988;50.518;30.486;2022-07-03T03:31:14;9.38;;;2.58;;
45252;SDS011;30988;50.518;30.486;2022-07-03T03:31:46;7.22;;;3.30;;
45252;SDS011;30988;50.518;30.486;2022-07-03T03:32:17;6.22;;;3.38;;
45252;SDS011;30988;50.518;30.486;2022-07-03T03:32:49;10.27;;;2.33;;
45252;SDS011;30988;50.518;30.486;2022-07-03T03:33:21;4.32;;;1.70;;
45252;SDS011;30988;50.518;30.486;2022-07-03T03:33:53;2.97;;;2.00;;
45252;SDS011;30988;50.518;30.486;2022-07-03T03:34:27;4.03;;;1.77;;
45252;SDS011;30988;50.518;30.486;2022-07-03T03:34:59;4.13;;;1.80;;